sensor_id;sensor_type;location;lat;lon;timestamp;pressure;altitude;pressure_sealevel;temperature;humidity
68654;BME280;55636;51.108;13.622;2022-08-26T00:00:56;100186.66;;;21.58;64.00
68654;BME280;55636;51.108;13.622;2022-08-26T00:01:59;100193.13;;;21.59;64.26
68654;BME280;55636;51.108;13.622;2022-08-26T00:03:12;100196.28;;;21.57;64.08
68654;BME280;55636;51.108;13.622;2022-08-26T00:04:15;100184.22;;;21.56;64.04
68654;BME280;55636;51.108;13.622;2022-08-26T00:05:18;100189.00;;;21.56;64.00
68654;BME280;55636;51.108;13.622;2022-08-26T00:06:20;100189.00;;;21.56;63.88
68654;BME280;55636;51.108;13.622;2022-08-26T00:07:23;100185.38;;;21.55;63.93
68654;BME280;55636;51.108;13.622;2022-08-26T00:08:25;100187.72;;;21.53;64.20
68654;BME280;55636;51.108;13.622;2022-08-26T00:09:27;100190.50;;;21.53;64.27
68654;BME280;55636;51.108;13.622;2022-08-26T00:10:30;100187.22;;;21.51;64.08
68654;BME280;55636;51.108;13.622;2022-08-26T00:11:32;100184.41;;;21.51;64.17
68654;BME280;55636;51.108;13.622;2022-08-26T00:12:35;100170.69;;;21.50;64.29
68654;BME280;55636;51.108;13.622;2022-08-26T00:13:39;100172.69;;;21.49;64.42
68654;BME280;55636;51.108;13.622;2022-08-26T00:14:48;100180.28;;;21.49;64.31
68654;BME280;55636;51.108;13.622;2022-08-26T00:15:51;100171.03;;;21.48;64.26
68654;BME280;55636;51.108;13.622;2022-08-26T00:16:53;100177.00;;;21.47;64.38
68654;BME280;55636;51.108;13.622;2022-08-26T00:17:56;100177.31;;;21.45;64.59
68654;BME280;55636;51.108;13.622;2022-08-26T00:18:58;100177.31;;;21.45;64.53
68654;BME280;55636;51.108;13.622;2022-08-26T00:20:02;100172.03;;;21.44;64.54
68654;BME280;55636;51.108;13.622;2022-08-26T00:21:06;100173.16;;;21.42;64.42
68654;BME280;55636;51.108;13.622;2022-08-26T00:22:09;100177.16;;;21.41;64.63
68654;BME280;55636;51.108;13.622;2022-08-26T00:23:12;100169.53;;;21.42;64.68
68654;BME280;55636;51.108;13.622;2022-08-26T00:24:15;100178.31;;;21.40;64.82
68654;BME280;55636;51.108;13.622;2022-08-26T00:25:18;100175.84;;;21.39;64.86
68654;BME280;55636;51.108;13.622;2022-08-26T00:26:23;100173.88;;;21.39;64.71
68654;BME280;55636;51.108;13.622;2022-08-26T00:27:30;100171.41;;;21.38;64.52
68654;BME280;55636;51.108;13.622;2022-08-26T00:28:35;100173.38;;;21.37;64.74
68654;BME280;55636;51.108;13.622;2022-08-26T00:29:37;100170.91;;;21.36;64.58
68654;BME280;55636;51.108;13.622;2022-08-26T00:30:40;100174.91;;;21.35;64.91
68654;BME280;55636;51.108;13.622;2022-08-26T00:31:46;100166.47;;;21.35;64.89
68654;BME280;55636;51.108;13.622;2022-08-26T00:32:49;100176.06;;;21.34;64.89
68654;BME280;55636;51.108;13.622;2022-08-26T00:33:52;100168.78;;;21.33;64.93
68654;BME280;55636;51.108;13.622;2022-08-26T00:34:56;100167.13;;;21.32;64.88
68654;BME280;55636;51.108;13.622;2022-08-26T00:35:59;100169.13;;;21.31;65.16
68654;BME280;55636;51.108;13.622;2022-08-26T00:37:04;100168.63;;;21.29;65.30
68654;BME280;55636;51.108;13.622;2022-08-26T00:38:14;100169.47;;;21.30;64.83
68654;BME280;55636;51.108;13.622;2022-08-26T00:39:16;100172.59;;;21.28;65.04
68654;BME280;55636;51.108;13.622;2022-08-26T00:40:24;100167.31;;;21.27;65.10
68654;BME280;55636;51.108;13.622;2022-08-26T00:41:27;100163.69;;;21.26;65.21
68654;BME280;55636;51.108;13.622;2022-08-26T00:42:29;100165.66;;;21.25;64.88
68654;BME280;55636;51.108;13.622;2022-08-26T00:43:35;100172.47;;;21.24;65.15
68654;BME280;55636;51.108;13.622;2022-08-26T00:44:48;100163.19;;;21.24;65.38
68654;BME280;55636;51.108;13.622;2022-08-26T00:46:04;100155.13;;;21.22;65.11
68654;BME280;55636;51.108;13.622;2022-08-26T00:47:24;100157.09;;;21.22;65.10
68654;BME280;55636;51.108;13.622;2022-08-26T00:48:33;100162.72;;;21.22;65.09
68654;BME280;55636;51.108;13.622;2022-08-26T00:49:41;100172.31;;;21.21;65.14
68654;BME280;55636;51.108;13.622;2022-08-26T00:50:52;100163.03;;;21.20;65.15
68654;BME280;55636;51.108;13.622;2022-08-26T00:51:57;100158.91;;;21.18;65.17
68654;BME280;55636;51.108;13.622;2022-08-26T00:53:04;100153.66;;;21.16;65.15
68654;BME280;55636;51.108;13.622;2022-08-26T00:54:27;100152.84;;;21.16;65.13
68654;BME280;55636;51.108;13.622;2022-08-26T00:55:39;100158.78;;;21.14;65.17
68654;BME280;55636;51.108;13.622;2022-08-26T00:57:55;100153.53;;;21.13;65.42
68654;BME280;55636;51.108;13.622;2022-08-26T00:59:00;100153.84;;;21.11;65.47
68654;BME280;55636;51.108;13.622;2022-08-26T01:00:13;100155.03;;;21.10;65.38
68654;BME280;55636;51.108;13.622;2022-08-26T01:01:16;100151.72;;;21.08;65.48
68654;BME280;55636;51.108;13.622;2022-08-26T01:02:24;100153.72;;;21.07;65.66
68654;BME280;55636;51.108;13.622;2022-08-26T01:03:31;100143.97;;;21.05;65.79
68654;BME280;55636;51.108;13.622;2022-08-26T01:04:35;100157.16;;;21.04;65.56
68654;BME280;55636;51.108;13.622;2022-08-26T01:05:40;100157.50;;;21.03;65.56
68654;BME280;55636;51.108;13.622;2022-08-26T01:06:48;100155.88;;;21.02;65.64
68654;BME280;55636;51.108;13.622;2022-08-26T01:07:51;100159.00;;;21.00;65.91
68654;BME280;55636;51.108;13.622;2022-08-26T01:08:53;100153.75;;;20.99;65.56
68654;BME280;55636;51.108;13.622;2022-08-26T01:09:58;100158.50;;;20.98;65.98
68654;BME280;55636;51.108;13.622;2022-08-26T01:11:01;100153.25;;;20.97;65.75
68654;BME280;55636;51.108;13.622;2022-08-26T01:12:05;100154.41;;;20.96;65.97
68654;BME280;55636;51.108;13.622;2022-08-26T01:13:12;100149.13;;;20.94;65.74
68654;BME280;55636;51.108;13.622;2022-08-26T01:14:18;100147.47;;;20.93;65.83
68654;BME280;55636;51.108;13.622;2022-08-26T01:15:24;100157.06;;;20.92;66.01
68654;BME280;55636;51.108;13.622;2022-08-26T01:16:35;100154.25;;;20.92;66.12
68654;BME280;55636;51.108;13.622;2022-08-26T01:17:38;100163.84;;;20.91;66.25
68654;BME280;55636;51.108;13.622;2022-08-26T01:18:45;100157.38;;;20.90;66.50
68654;BME280;55636;51.108;13.622;2022-08-26T01:19:50;100156.56;;;20.90;66.02
68654;BME280;55636;51.108;13.622;2022-08-26T01:21:30;100162.88;;;20.87;66.16
68654;BME280;55636;51.108;13.622;2022-08-26T01:22:47;100158.41;;;20.86;66.17
68654;BME280;55636;51.108;13.622;2022-08-26T01:23:55;100147.19;;;20.86;66.08
68654;BME280;55636;51.108;13.622;2022-08-26T01:24:59;100150.31;;;20.84;66.18
68654;BME280;55636;51.108;13.622;2022-08-26T01:26:10;100152.28;;;20.84;66.21
68654;BME280;55636;51.108;13.622;2022-08-26T01:27:20;100159.41;;;20.81;66.61
68654;BME280;55636;51.108;13.622;2022-08-26T01:28:28;100141.75;;;20.81;66.70
68654;BME280;55636;51.108;13.622;2022-08-26T01:29:38;100154.13;;;20.80;66.59
68654;BME280;55636;51.108;13.622;2022-08-26T01:30:45;100154.13;;;20.80;66.56
68654;BME280;55636;51.108;13.622;2022-08-26T01:31:52;100154.47;;;20.78;66.81
68654;BME280;55636;51.108;13.622;2022-08-26T01:32:59;100157.28;;;20.78;66.86
68654;BME280;55636;51.108;13.622;2022-08-26T01:35:05;100158.78;;;20.75;66.66
68654;BME280;55636;51.108;13.622;2022-08-26T01:36:09;100157.97;;;20.75;67.03
68654;BME280;55636;51.108;13.622;2022-08-26T01:37:16;100163.88;;;20.73;67.07
68654;BME280;55636;51.108;13.622;2022-08-26T01:38:19;100156.31;;;20.74;66.98
68654;BME280;55636;51.108;13.622;2022-08-26T01:39:24;100163.88;;;20.73;67.13
68654;BME280;55636;51.108;13.622;2022-08-26T01:40:30;100157.44;;;20.73;66.87
68654;BME280;55636;51.108;13.622;2022-08-26T01:41:35;100159.44;;;20.72;67.39
68654;BME280;55636;51.108;13.622;2022-08-26T01:42:40;100164.22;;;20.72;67.24
68654;BME280;55636;51.108;13.622;2022-08-26T01:43:44;100155.81;;;20.72;67.12
68654;BME280;55636;51.108;13.622;2022-08-26T01:46:00;100155.31;;;20.70;67.38
68654;BME280;55636;51.108;13.622;2022-08-26T01:47:06;100162.56;;;20.71;67.34
68654;BME280;55636;51.108;13.622;2022-08-26T01:48:14;100169.03;;;20.71;67.32
68654;BME280;55636;51.108;13.622;2022-08-26T01:49:18;100163.75;;;20.70;67.18
68654;BME280;55636;51.108;13.622;2022-08-26T01:50:26;100169.03;;;20.71;67.33
68654;BME280;55636;51.108;13.622;2022-08-26T01:51:35;100164.56;;;20.70;67.00
68654;BME280;55636;51.108;13.622;2022-08-26T01:52:42;100164.56;;;20.70;67.32
68654;BME280;55636;51.108;13.622;2022-08-26T01:53:51;100162.88;;;20.69;67.12
68654;BME280;55636;51.108;13.622;2022-08-26T01:54:55;100165.69;;;20.69;67.10
68654;BME280;55636;51.108;13.622;2022-08-26T01:55:59;100160.41;;;20.68;67.03
68654;BME280;55636;51.108;13.622;2022-08-26T01:57:04;100154.78;;;20.68;67.51
68654;BME280;55636;51.108;13.622;2022-08-26T01:58:14;100151.19;;;20.67;67.00
68654;BME280;55636;51.108;13.622;2022-08-26T01:59:21;100157.94;;;20.66;67.13
68654;BME280;55636;51.108;13.622;2022-08-26T02:00:25;100160.75;;;20.66;67.39
68654;BME280;55636;51.108;13.622;2022-08-26T02:01:28;100160.75;;;20.66;67.23
68654;BME280;55636;51.108;13.622;2022-08-26T02:02:31;100159.09;;;20.65;67.50
68654;BME280;55636;51.108;13.622;2022-08-26T02:03:35;100164.38;;;20.67;67.46
68654;BME280;55636;51.108;13.622;2022-08-26T02:04:49;100164.69;;;20.65;67.52
68654;BME280;55636;51.108;13.622;2022-08-26T02:05:57;100158.28;;;20.65;67.56
68654;BME280;55636;51.108;13.622;2022-08-26T02:07:04;100157.44;;;20.64;67.41
68654;BME280;55636;51.108;13.622;2022-08-26T02:08:09;100163.06;;;20.64;67.34
68654;BME280;55636;51.108;13.622;2022-08-26T02:09:12;100159.44;;;20.64;67.14
68654;BME280;55636;51.108;13.622;2022-08-26T02:10:15;100164.22;;;20.63;67.51
68654;BME280;55636;51.108;13.622;2022-08-26T02:11:21;100164.22;;;20.63;67.34
68654;BME280;55636;51.108;13.622;2022-08-26T02:12:25;100161.44;;;20.63;67.35
68654;BME280;55636;51.108;13.622;2022-08-26T02:13:30;100168.19;;;20.62;67.33
68654;BME280;55636;51.108;13.622;2022-08-26T02:14:37;100163.72;;;20.61;67.11
68654;BME280;55636;51.108;13.622;2022-08-26T02:15:45;100166.53;;;20.61;67.22
68654;BME280;55636;51.108;13.622;2022-08-26T02:16:50;100160.09;;;20.61;67.31
68654;BME280;55636;51.108;13.622;2022-08-26T02:17:54;100171.34;;;20.61;67.28
68654;BME280;55636;51.108;13.622;2022-08-26T02:18:59;100169.34;;;20.61;67.23
68654;BME280;55636;51.108;13.622;2022-08-26T02:20:05;100164.88;;;20.60;67.45
68654;BME280;55636;51.108;13.622;2022-08-26T02:21:14;100163.22;;;20.59;67.14
68654;BME280;55636;51.108;13.622;2022-08-26T02:22:20;100166.03;;;20.59;67.42
68654;BME280;55636;51.108;13.622;2022-08-26T02:23:23;100156.81;;;20.58;67.12
68654;BME280;55636;51.108;13.622;2022-08-26T02:24:28;100161.59;;;20.58;66.92
68654;BME280;55636;51.108;13.622;2022-08-26T02:25:52;100164.72;;;20.56;66.72
68654;BME280;55636;51.108;13.622;2022-08-26T02:26:56;100168.38;;;20.57;67.23
68654;BME280;55636;51.108;13.622;2022-08-26T02:27:59;100167.84;;;20.55;67.05
68654;BME280;55636;51.108;13.622;2022-08-26T02:29:06;100162.25;;;20.55;67.47
68654;BME280;55636;51.108;13.622;2022-08-26T02:31:13;100169.00;;;20.54;67.33
68654;BME280;55636;51.108;13.622;2022-08-26T02:32:16;100169.00;;;20.54;67.58
68654;BME280;55636;51.108;13.622;2022-08-26T02:33:27;100164.59;;;20.53;67.46
68654;BME280;55636;51.108;13.622;2022-08-26T02:34:31;100165.72;;;20.52;67.46
68654;BME280;55636;51.108;13.622;2022-08-26T02:35:35;100167.69;;;20.51;67.34
68654;BME280;55636;51.108;13.622;2022-08-26T02:36:38;100160.47;;;20.50;67.59
68654;BME280;55636;51.108;13.622;2022-08-26T02:37:41;100159.63;;;20.50;67.40
68654;BME280;55636;51.108;13.622;2022-08-26T02:38:44;100155.16;;;20.49;67.43
68654;BME280;55636;51.108;13.622;2022-08-26T02:39:47;100164.75;;;20.48;67.20
68654;BME280;55636;51.108;13.622;2022-08-26T02:40:49;100163.91;;;20.47;67.12
68654;BME280;55636;51.108;13.622;2022-08-26T02:41:51;100161.09;;;20.47;67.28
68654;BME280;55636;51.108;13.622;2022-08-26T02:42:54;100158.63;;;20.46;67.55
68654;BME280;55636;51.108;13.622;2022-08-26T02:43:57;100157.81;;;20.45;67.21
68654;BME280;55636;51.108;13.622;2022-08-26T02:45:00;100155.38;;;20.44;67.53
68654;BME280;55636;51.108;13.622;2022-08-26T02:46:02;100154.19;;;20.45;67.36
68654;BME280;55636;51.108;13.622;2022-08-26T02:47:06;100164.59;;;20.44;67.32
68654;BME280;55636;51.108;13.622;2022-08-26T02:48:14;100153.72;;;20.42;67.50
68654;BME280;55636;51.108;13.622;2022-08-26T02:49:23;100166.88;;;20.42;67.41
68654;BME280;55636;51.108;13.622;2022-08-26T02:50:26;100156.84;;;20.41;67.27
68654;BME280;55636;51.108;13.622;2022-08-26T02:51:28;100163.28;;;20.41;67.11
68654;BME280;55636;51.108;13.622;2022-08-26T02:52:31;100165.56;;;20.39;67.39
68654;BME280;55636;51.108;13.622;2022-08-26T02:53:33;100159.97;;;20.39;67.12
68654;BME280;55636;51.108;13.622;2022-08-26T02:54:36;100161.16;;;20.38;67.31
68654;BME280;55636;51.108;13.622;2022-08-26T02:55:39;100161.44;;;20.37;67.17
68654;BME280;55636;51.108;13.622;2022-08-26T02:56:44;100161.44;;;20.37;67.43
68654;BME280;55636;51.108;13.622;2022-08-26T02:57:46;100160.63;;;20.36;67.41
68654;BME280;55636;51.108;13.622;2022-08-26T02:58:49;100160.63;;;20.36;67.00
68654;BME280;55636;51.108;13.622;2022-08-26T02:59:51;100157.31;;;20.34;67.02
68654;BME280;55636;51.108;13.622;2022-08-26T03:00:54;100156.50;;;20.34;67.17
68654;BME280;55636;51.108;13.622;2022-08-26T03:01:56;100161.78;;;20.35;66.92
68654;BME280;55636;51.108;13.622;2022-08-26T03:02:59;100152.06;;;20.33;67.28
68654;BME280;55636;51.108;13.622;2022-08-26T03:04:02;100151.59;;;20.31;66.96
68654;BME280;55636;51.108;13.622;2022-08-26T03:05:05;100158.00;;;20.31;67.00
68654;BME280;55636;51.108;13.622;2022-08-26T03:06:09;100162.81;;;20.31;67.14
68654;BME280;55636;51.108;13.622;2022-08-26T03:07:11;100149.94;;;20.30;67.05
68654;BME280;55636;51.108;13.622;2022-08-26T03:08:14;100151.88;;;20.29;67.33
68654;BME280;55636;51.108;13.622;2022-08-26T03:09:16;100158.69;;;20.28;67.37
68654;BME280;55636;51.108;13.622;2022-08-26T03:10:27;100157.84;;;20.28;67.38
68654;BME280;55636;51.108;13.622;2022-08-26T03:11:33;100165.44;;;20.27;67.15
68654;BME280;55636;51.108;13.622;2022-08-26T03:12:39;100156.19;;;20.26;67.56
68654;BME280;55636;51.108;13.622;2022-08-26T03:13:42;100160.97;;;20.26;67.55
68654;BME280;55636;51.108;13.622;2022-08-26T03:14:47;100159.31;;;20.25;67.14
68654;BME280;55636;51.108;13.622;2022-08-26T03:15:49;100157.66;;;20.24;67.56
68654;BME280;55636;51.108;13.622;2022-08-26T03:16:52;100154.88;;;20.24;67.56
68654;BME280;55636;51.108;13.622;2022-08-26T03:17:55;100154.06;;;20.23;67.36
68654;BME280;55636;51.108;13.622;2022-08-26T03:18:58;100152.41;;;20.22;67.67
68654;BME280;55636;51.108;13.622;2022-08-26T03:20:01;100150.78;;;20.21;67.55
68654;BME280;55636;51.108;13.622;2022-08-26T03:21:10;100149.94;;;20.21;67.15
68654;BME280;55636;51.108;13.622;2022-08-26T03:22:13;100144.66;;;20.19;67.29
68654;BME280;55636;51.108;13.622;2022-08-26T03:23:16;100148.59;;;20.18;67.31
68654;BME280;55636;51.108;13.622;2022-08-26T03:24:21;100148.94;;;20.17;66.94
68654;BME280;55636;51.108;13.622;2022-08-26T03:25:26;100146.13;;;20.17;66.95
68654;BME280;55636;51.108;13.622;2022-08-26T03:26:28;100144.50;;;20.16;67.33
68654;BME280;55636;51.108;13.622;2022-08-26T03:27:30;100144.50;;;20.16;67.26
68654;BME280;55636;51.108;13.622;2022-08-26T03:28:33;100141.22;;;20.14;67.16
68654;BME280;55636;51.108;13.622;2022-08-26T03:29:37;100144.81;;;20.14;67.24
68654;BME280;55636;51.108;13.622;2022-08-26T03:30:59;100144.31;;;20.12;67.40
68654;BME280;55636;51.108;13.622;2022-08-26T03:32:01;100144.31;;;20.12;67.32
68654;BME280;55636;51.108;13.622;2022-08-26T03:33:05;100145.16;;;20.13;67.15
68654;BME280;55636;51.108;13.622;2022-08-26T03:34:08;100147.47;;;20.11;67.28
68654;BME280;55636;51.108;13.622;2022-08-26T03:35:12;100143.00;;;20.09;67.42
68654;BME280;55636;51.108;13.622;2022-08-26T03:36:14;100140.19;;;20.09;67.30
68654;BME280;55636;51.108;13.622;2022-08-26T03:37:17;100146.66;;;20.10;67.32
68654;BME280;55636;51.108;13.622;2022-08-26T03:38:22;100143.00;;;20.09;67.66
68654;BME280;55636;51.108;13.622;2022-08-26T03:39:26;100138.56;;;20.08;67.66
68654;BME280;55636;51.108;13.622;2022-08-26T03:40:34;100137.72;;;20.08;67.42
68654;BME280;55636;51.108;13.622;2022-08-26T03:41:38;100143.34;;;20.08;67.47
68654;BME280;55636;51.108;13.622;2022-08-26T03:42:41;100141.69;;;20.07;67.49
68654;BME280;55636;51.108;13.622;2022-08-26T03:43:46;100138.06;;;20.06;67.46
68654;BME280;55636;51.108;13.622;2022-08-26T03:44:49;100140.88;;;20.06;67.52
68654;BME280;55636;51.108;13.622;2022-08-26T03:45:52;100142.84;;;20.06;67.53
68654;BME280;55636;51.108;13.622;2022-08-26T03:46:55;100147.63;;;20.05;67.35
68654;BME280;55636;51.108;13.622;2022-08-26T03:47:58;100145.16;;;20.04;67.54
68654;BME280;55636;51.108;13.622;2022-08-26T03:49:02;100128.66;;;20.02;67.79
68654;BME280;55636;51.108;13.622;2022-08-26T03:50:09;100139.03;;;20.02;67.73
68654;BME280;55636;51.108;13.622;2022-08-26T03:51:17;100134.28;;;20.02;67.76
68654;BME280;55636;51.108;13.622;2022-08-26T03:52:19;100136.56;;;20.00;67.50
68654;BME280;55636;51.108;13.622;2022-08-26T03:53:22;100137.72;;;19.99;67.46
68654;BME280;55636;51.108;13.622;2022-08-26T03:54:24;100134.91;;;19.99;67.37
68654;BME280;55636;51.108;13.622;2022-08-26T03:55:29;100130.50;;;19.98;67.73
68654;BME280;55636;51.108;13.622;2022-08-26T03:56:33;100137.72;;;19.99;67.42
68654;BME280;55636;51.108;13.622;2022-08-26T03:57:36;100132.44;;;19.98;67.83
68654;BME280;55636;51.108;13.622;2022-08-26T03:58:38;100138.06;;;19.98;67.77
68654;BME280;55636;51.108;13.622;2022-08-26T03:59:43;100137.25;;;19.97;67.69
68654;BME280;55636;51.108;13.622;2022-08-26T04:00:46;100142.03;;;19.97;67.52
68654;BME280;55636;51.108;13.622;2022-08-26T04:01:52;100133.94;;;19.95;67.72
68654;BME280;55636;51.108;13.622;2022-08-26T04:02:54;100137.91;;;19.94;67.86
68654;BME280;55636;51.108;13.622;2022-08-26T04:03:57;100137.03;;;19.93;67.76
68654;BME280;55636;51.108;13.622;2022-08-26T04:05:01;100125.84;;;19.93;67.63
68654;BME280;55636;51.108;13.622;2022-08-26T04:06:04;100129.78;;;19.92;67.71
68654;BME280;55636;51.108;13.622;2022-08-26T04:07:07;100135.38;;;19.92;67.69
68654;BME280;55636;51.108;13.622;2022-08-26T04:08:09;100134.56;;;19.92;68.01
68654;BME280;55636;51.108;13.622;2022-08-26T04:09:14;100131.78;;;19.92;67.69
68654;BME280;55636;51.108;13.622;2022-08-26T04:10:20;100135.72;;;19.91;67.77
68654;BME280;55636;51.108;13.622;2022-08-26T04:11:34;100132.91;;;19.91;67.81
68654;BME280;55636;51.108;13.622;2022-08-26T04:12:40;100138.53;;;19.91;67.85
68654;BME280;55636;51.108;13.622;2022-08-26T04:13:42;100131.25;;;19.90;67.67
68654;BME280;55636;51.108;13.622;2022-08-26T04:14:44;100133.25;;;19.89;67.66
68654;BME280;55636;51.108;13.622;2022-08-26T04:15:47;100133.25;;;19.89;68.00
68654;BME280;55636;51.108;13.622;2022-08-26T04:16:51;100131.25;;;19.90;67.69
68654;BME280;55636;51.108;13.622;2022-08-26T04:17:56;100135.25;;;19.89;67.75
68654;BME280;55636;51.108;13.622;2022-08-26T04:18:58;100135.56;;;19.87;68.01
68654;BME280;55636;51.108;13.622;2022-08-26T04:20:04;100131.59;;;19.88;68.01
68654;BME280;55636;51.108;13.622;2022-08-26T04:21:07;100132.75;;;19.87;67.88
68654;BME280;55636;51.108;13.622;2022-08-26T04:22:11;100133.59;;;19.88;68.02
68654;BME280;55636;51.108;13.622;2022-08-26T04:23:13;100131.94;;;19.87;67.73
68654;BME280;55636;51.108;13.622;2022-08-26T04:24:21;100125.00;;;19.84;68.04
68654;BME280;55636;51.108;13.622;2022-08-26T04:25:24;100127.47;;;19.86;67.81
68654;BME280;55636;51.108;13.622;2022-08-26T04:26:27;100125.00;;;19.84;68.04
68654;BME280;55636;51.108;13.622;2022-08-26T04:27:29;100125.00;;;19.84;67.81
68654;BME280;55636;51.108;13.622;2022-08-26T04:28:31;100142.63;;;19.85;68.03
68654;BME280;55636;51.108;13.622;2022-08-26T04:29:33;100127.81;;;19.84;68.07
68654;BME280;55636;51.108;13.622;2022-08-26T04:30:36;100133.41;;;19.84;67.79
68654;BME280;55636;51.108;13.622;2022-08-26T04:31:39;100134.22;;;19.85;67.77
68654;BME280;55636;51.108;13.622;2022-08-26T04:32:42;100126.16;;;19.83;67.92
68654;BME280;55636;51.108;13.622;2022-08-26T04:33:46;100135.41;;;19.84;67.89
68654;BME280;55636;51.108;13.622;2022-08-26T04:34:50;100130.94;;;19.83;67.49
68654;BME280;55636;51.108;13.622;2022-08-26T04:36:00;100134.56;;;19.83;67.74
68654;BME280;55636;51.108;13.622;2022-08-26T04:37:04;100136.56;;;19.83;67.51
68654;BME280;55636;51.108;13.622;2022-08-26T04:38:07;100130.09;;;19.82;67.88
68654;BME280;55636;51.108;13.622;2022-08-26T04:39:11;100132.91;;;19.82;67.75
68654;BME280;55636;51.108;13.622;2022-08-26T04:40:15;100143.31;;;19.82;67.91
68654;BME280;55636;51.108;13.622;2022-08-26T04:41:19;100143.31;;;19.82;67.63
68654;BME280;55636;51.108;13.622;2022-08-26T04:42:21;100142.50;;;19.81;67.64
68654;BME280;55636;51.108;13.622;2022-08-26T04:43:27;100138.84;;;19.81;67.89
68654;BME280;55636;51.108;13.622;2022-08-26T04:44:34;100139.69;;;19.81;67.86
68654;BME280;55636;51.108;13.622;2022-08-26T04:45:37;100136.03;;;19.81;67.85
68654;BME280;55636;51.108;13.622;2022-08-26T04:46:41;100137.19;;;19.80;67.59
68654;BME280;55636;51.108;13.622;2022-08-26T04:47:44;100143.63;;;19.80;67.71
68654;BME280;55636;51.108;13.622;2022-08-26T04:48:48;100129.97;;;19.79;68.02
68654;BME280;55636;51.108;13.622;2022-08-26T04:49:56;100137.19;;;19.80;67.87
68654;BME280;55636;51.108;13.622;2022-08-26T04:50:59;100134.38;;;19.80;68.19
68654;BME280;55636;51.108;13.622;2022-08-26T04:52:02;100142.78;;;19.80;67.94
68654;BME280;55636;51.108;13.622;2022-08-26T04:53:06;100140.00;;;19.80;68.23
68654;BME280;55636;51.108;13.622;2022-08-26T04:54:11;100134.38;;;19.80;68.04
68654;BME280;55636;51.108;13.622;2022-08-26T04:55:19;100129.97;;;19.79;68.46
68654;BME280;55636;51.108;13.622;2022-08-26T04:56:29;100136.38;;;19.79;68.35
68654;BME280;55636;51.108;13.622;2022-08-26T04:57:35;100135.22;;;19.80;68.45
68654;BME280;55636;51.108;13.622;2022-08-26T04:58:37;100128.78;;;19.80;68.44
68654;BME280;55636;51.108;13.622;2022-08-26T04:59:39;100140.00;;;19.80;68.59
68654;BME280;55636;51.108;13.622;2022-08-26T05:00:43;100131.59;;;19.80;68.46
68654;BME280;55636;51.108;13.622;2022-08-26T05:01:48;100132.44;;;19.80;68.58
68654;BME280;55636;51.108;13.622;2022-08-26T05:02:51;100130.44;;;19.81;68.59
68654;BME280;55636;51.108;13.622;2022-08-26T05:03:54;100130.44;;;19.81;68.49
68654;BME280;55636;51.108;13.622;2022-08-26T05:04:56;100129.63;;;19.80;68.54
68654;BME280;55636;51.108;13.622;2022-08-26T05:06:02;100129.28;;;19.82;68.71
68654;BME280;55636;51.108;13.622;2022-08-26T05:07:05;100133.75;;;19.83;68.53
68654;BME280;55636;51.108;13.622;2022-08-26T05:08:12;100130.94;;;19.83;68.56
68654;BME280;55636;51.108;13.622;2022-08-26T05:09:16;100131.75;;;19.83;68.70
68654;BME280;55636;51.108;13.622;2022-08-26T05:10:21;100128.97;;;19.83;68.60
68654;BME280;55636;51.108;13.622;2022-08-26T05:11:25;100136.22;;;19.84;68.70
68654;BME280;55636;51.108;13.622;2022-08-26T05:12:28;100132.59;;;19.84;68.82
68654;BME280;55636;51.108;13.622;2022-08-26T05:13:31;100135.88;;;19.86;68.49
68654;BME280;55636;51.108;13.622;2022-08-26T05:14:35;100133.09;;;19.86;68.74
68654;BME280;55636;51.108;13.622;2022-08-26T05:15:37;100133.59;;;19.88;68.60
68654;BME280;55636;51.108;13.622;2022-08-26T05:16:41;100134.41;;;19.88;68.41
68654;BME280;55636;51.108;13.622;2022-08-26T05:17:43;100136.06;;;19.89;68.66
68654;BME280;55636;51.108;13.622;2022-08-26T05:18:46;100139.66;;;19.90;68.49
68654;BME280;55636;51.108;13.622;2022-08-26T05:19:50;100141.66;;;19.89;68.41
68654;BME280;55636;51.108;13.622;2022-08-26T05:20:53;100136.88;;;19.90;68.36
68654;BME280;55636;51.108;13.622;2022-08-26T05:21:55;100142.97;;;19.92;68.29
68654;BME280;55636;51.108;13.622;2022-08-26T05:23:01;100140.19;;;19.92;68.06
68654;BME280;55636;51.108;13.622;2022-08-26T05:24:03;100142.66;;;19.93;68.39
68654;BME280;55636;51.108;13.622;2022-08-26T05:25:06;100137.03;;;19.93;68.36
68654;BME280;55636;51.108;13.622;2022-08-26T05:26:08;100143.53;;;19.94;68.37
68654;BME280;55636;51.108;13.622;2022-08-26T05:27:12;100142.34;;;19.95;68.26
68654;BME280;55636;51.108;13.622;2022-08-26T05:28:16;100141.19;;;19.96;68.41
68654;BME280;55636;51.108;13.622;2022-08-26T05:29:19;100146.81;;;19.96;68.12
68654;BME280;55636;51.108;13.622;2022-08-26T05:30:23;100141.19;;;19.96;68.29
68654;BME280;55636;51.108;13.622;2022-08-26T05:31:29;100138.06;;;19.98;68.18
68654;BME280;55636;51.108;13.622;2022-08-26T05:32:32;100139.72;;;19.99;68.23
68654;BME280;55636;51.108;13.622;2022-08-26T05:33:34;100138.91;;;19.98;68.35
68654;BME280;55636;51.108;13.622;2022-08-26T05:34:42;100138.91;;;19.98;68.47
68654;BME280;55636;51.108;13.622;2022-08-26T05:35:45;100140.53;;;19.99;68.24
68654;BME280;55636;51.108;13.622;2022-08-26T05:36:49;100144.16;;;20.00;68.46
68654;BME280;55636;51.108;13.622;2022-08-26T05:37:51;100139.38;;;20.00;68.30
68654;BME280;55636;51.108;13.622;2022-08-26T05:38:55;100143.84;;;20.01;68.61
68654;BME280;55636;51.108;13.622;2022-08-26T05:39:57;100144.66;;;20.02;68.37